createdAt,value
2023-04-09T00:02:19.821Z,19.13
2023-04-09T00:05:06.437Z,19.48
2023-04-09T00:07:51.826Z,17.50
2023-04-09T00:10:37.080Z,22.13
2023-04-09T00:13:35.588Z,20.48
2023-04-09T00:16:23.663Z,22.48
2023-04-09T00:19:08.681Z,22.05
2023-04-09T00:21:53.866Z,29.40
2023-04-09T00:24:38.836Z,31.08
2023-04-09T00:27:23.591Z,24.95
2023-04-09T00:30:09.183Z,29.15
2023-04-09T00:32:54.287Z,29.15
2023-04-09T00:35:39.792Z,26.58
2023-04-09T00:38:25.292Z,26.05
2023-04-09T00:41:10.559Z,30.25
2023-04-09T00:43:58.887Z,29.05
2023-04-09T00:46:43.694Z,33.60
2023-04-09T00:49:29.061Z,31.83
2023-04-09T00:52:14.236Z,30.05
2023-04-09T00:55:00.726Z,30.95
2023-04-09T00:57:45.671Z,33.85
2023-04-09T01:00:31.076Z,31.73
2023-04-09T01:03:16.582Z,27.70
2023-04-09T01:06:35.173Z,30.77
2023-04-09T01:09:37.239Z,29.67
2023-04-09T01:12:41.294Z,31.15
2023-04-09T01:15:29.740Z,31.35
2023-04-09T01:18:17.782Z,34.83
2023-04-09T01:21:07.188Z,39.10
2023-04-09T01:24:11.100Z,38.55
2023-04-09T01:27:06.671Z,40.88
2023-04-09T01:29:53.442Z,53.38
2023-04-09T01:32:39.282Z,51.45
2023-04-09T01:35:26.086Z,48.70
2023-04-09T01:38:13.758Z,52.05
2023-04-09T01:41:00.818Z,46.30
2023-04-09T01:43:46.763Z,53.03
2023-04-09T01:46:33.485Z,48.65
2023-04-09T01:49:18.814Z,49.15
2023-04-09T01:52:04.383Z,48.63
2023-04-09T01:54:49.348Z,46.92
2023-04-09T01:57:34.169Z,44.83
2023-04-09T02:00:19.508Z,48.00
2023-04-09T02:03:10.784Z,50.55
2023-04-09T02:06:01.146Z,47.55
2023-04-09T02:08:47.760Z,42.70
2023-04-09T02:11:34.164Z,55.40
2023-04-09T02:14:21.218Z,56.17
2023-04-09T02:17:13.530Z,54.72
2023-04-09T02:19:58.825Z,57.20
2023-04-09T02:22:43.993Z,56.30
2023-04-09T02:25:29.304Z,60.38
2023-04-09T02:28:14.508Z,67.70
2023-04-09T02:30:59.883Z,62.38
2023-04-09T02:33:44.867Z,66.05
2023-04-09T02:36:31.113Z,67.93
2023-04-09T02:39:16.641Z,70.43
2023-04-09T02:42:02.211Z,67.65
2023-04-09T02:44:47.016Z,60.10
2023-04-09T02:47:31.986Z,69.57
2023-04-09T02:50:17.530Z,58.78
2023-04-09T02:53:02.814Z,61.38
2023-04-09T02:55:48.156Z,62.08
2023-04-09T02:58:33.476Z,58.58
2023-04-09T03:01:18.556Z,74.20
2023-04-09T03:04:04.246Z,96.30
2023-04-09T03:06:51.632Z,150.93
2023-04-09T03:09:36.691Z,117.28
2023-04-09T03:12:21.958Z,61.25
2023-04-09T03:15:07.390Z,102.05
2023-04-09T03:17:52.632Z,71.57
2023-04-09T03:20:39.527Z,55.00
2023-04-09T03:23:24.745Z,69.00
2023-04-09T03:26:09.788Z,95.07
2023-04-09T03:28:54.944Z,91.72
2023-04-09T03:31:40.341Z,81.93
2023-04-09T03:34:25.381Z,116.40
2023-04-09T03:37:10.336Z,81.53
2023-04-09T03:39:55.212Z,86.68
2023-04-09T03:42:42.546Z,84.55
2023-04-09T03:45:29.256Z,69.38
2023-04-09T03:48:14.460Z,82.65
2023-04-09T03:50:59.406Z,86.32
2023-04-09T03:53:44.779Z,107.95
2023-04-09T03:56:29.748Z,71.78
2023-04-09T03:59:14.659Z,75.53
2023-04-09T04:01:59.590Z,66.72
2023-04-09T04:04:45.830Z,76.18
2023-04-09T04:07:32.324Z,64.15
2023-04-09T04:10:17.363Z,73.97
2023-04-09T04:13:02.912Z,66.40
2023-04-09T04:15:48.197Z,70.82
2023-04-09T04:18:33.390Z,69.25
2023-04-09T04:21:18.260Z,71.97
2023-04-09T04:24:03.269Z,70.03
2023-04-09T04:26:48.562Z,73.90
2023-04-09T04:29:33.604Z,72.55
2023-04-09T04:32:19.129Z,75.47
2023-04-09T04:35:04.122Z,71.88
2023-04-09T04:37:51.047Z,72.25
2023-04-09T04:40:36.919Z,70.85
2023-04-09T04:43:22.146Z,75.93
2023-04-09T04:46:07.175Z,73.38
2023-04-09T04:48:52.372Z,78.05
2023-04-09T04:51:37.665Z,74.95
2023-04-09T04:54:22.623Z,81.78
2023-04-09T04:57:07.786Z,77.57
2023-04-09T04:59:52.854Z,87.25
2023-04-09T05:02:38.346Z,82.40
2023-04-09T05:05:23.707Z,74.75
2023-04-09T05:08:09.078Z,78.25
2023-04-09T05:10:56.166Z,74.05
2023-04-09T05:13:41.459Z,70.65
2023-04-09T05:16:27.104Z,70.15
2023-04-09T05:19:12.313Z,73.97
2023-04-09T05:21:57.590Z,130.50
2023-04-09T05:24:42.548Z,146.95
2023-04-09T05:27:28.200Z,101.43
2023-04-09T05:30:13.471Z,100.30
2023-04-09T05:32:58.868Z,91.93
2023-04-09T05:35:43.956Z,113.47
2023-04-09T05:38:29.053Z,95.20
2023-04-09T05:41:14.183Z,136.23
2023-04-09T05:44:00.791Z,138.05
2023-04-09T05:46:46.385Z,195.15
2023-04-09T05:49:31.486Z,89.95
2023-04-09T05:52:19.941Z,117.22
2023-04-09T05:55:06.621Z,112.78
2023-04-09T05:57:54.723Z,179.15
2023-04-09T06:00:39.962Z,94.55
2023-04-09T06:03:25.602Z,108.22
2023-04-09T06:06:11.021Z,71.45
2023-04-09T06:08:56.435Z,68.75
2023-04-09T06:11:41.681Z,183.20
2023-04-09T06:14:26.767Z,97.72
2023-04-09T06:17:11.694Z,84.63
2023-04-09T06:19:56.543Z,164.75
2023-04-09T06:22:41.890Z,97.10
2023-04-09T06:25:27.136Z,268.95
2023-04-09T06:28:12.372Z,119.18
2023-04-09T06:30:58.399Z,289.60
2023-04-09T06:33:43.324Z,258.05
2023-04-09T06:36:28.436Z,145.38
2023-04-09T06:39:13.584Z,113.25
2023-04-09T06:41:58.921Z,119.82
2023-04-09T06:44:44.063Z,114.32
2023-04-09T06:47:29.037Z,187.98
2023-04-09T06:50:13.965Z,83.20
2023-04-09T06:52:59.109Z,68.22
2023-04-09T06:55:44.310Z,65.20
2023-04-09T06:58:29.624Z,66.82
2023-04-09T07:01:17.205Z,79.75
2023-04-09T07:04:02.573Z,63.58
2023-04-09T07:06:47.698Z,95.05
2023-04-09T07:09:32.965Z,100.07
2023-04-09T07:12:28.226Z,90.57
2023-04-09T07:15:14.689Z,99.00
2023-04-09T07:17:59.812Z,69.35
2023-04-09T07:20:45.239Z,58.90
2023-04-09T07:23:30.555Z,67.43
2023-04-09T07:26:15.556Z,127.95
2023-04-09T07:29:00.703Z,68.43
2023-04-09T07:31:46.436Z,54.25
2023-04-09T07:34:32.010Z,55.80
2023-04-09T07:37:17.232Z,42.72
2023-04-09T07:40:04.037Z,41.53
2023-04-09T07:42:49.765Z,49.30
2023-04-09T07:45:34.804Z,46.47
2023-04-09T07:48:19.651Z,74.13
2023-04-09T07:51:06.163Z,56.70
2023-04-09T07:53:51.528Z,50.80
2023-04-09T07:56:37.092Z,50.40
2023-04-09T07:59:22.287Z,52.60
2023-04-09T08:02:07.929Z,20.30
2023-04-09T08:04:53.337Z,60.20
2023-04-09T08:07:38.783Z,55.92
2023-04-09T08:10:24.104Z,50.47
2023-04-09T08:13:10.195Z,57.33
2023-04-09T08:15:57.287Z,56.92
2023-04-09T08:18:42.630Z,54.80
2023-04-09T08:21:27.830Z,63.38
2023-04-09T08:24:12.878Z,68.57
2023-04-09T08:26:57.903Z,71.65
2023-04-09T08:29:42.890Z,66.57
2023-04-09T08:32:28.236Z,66.75
2023-04-09T08:35:13.327Z,69.20
2023-04-09T08:37:59.366Z,64.45
2023-04-09T08:40:44.505Z,61.85
2023-04-09T08:43:47.228Z,65.35
2023-04-09T08:46:37.258Z,64.28
2023-04-09T08:49:22.463Z,62.78
2023-04-09T08:52:08.154Z,63.45
2023-04-09T08:54:53.107Z,67.72
2023-04-09T08:57:39.268Z,64.50
2023-04-09T09:00:24.397Z,64.70
2023-04-09T09:03:13.109Z,70.20
2023-04-09T09:05:58.935Z,68.05
2023-04-09T09:08:43.846Z,67.07
2023-04-09T09:11:30.377Z,66.90
2023-04-09T09:14:18.469Z,62.58
2023-04-09T09:17:05.256Z,72.07
2023-04-09T09:19:50.319Z,63.58
2023-04-09T09:22:54.882Z,70.00
2023-04-09T09:25:42.023Z,78.38
2023-04-09T09:28:35.493Z,76.05
2023-04-09T09:31:22.557Z,71.72
2023-04-09T09:34:11.371Z,75.50
2023-04-09T09:36:56.754Z,74.93
2023-04-09T09:39:45.058Z,65.20
2023-04-09T09:42:30.393Z,67.05
2023-04-09T09:45:19.352Z,74.82
2023-04-09T09:48:10.594Z,74.37
2023-04-09T09:50:56.113Z,72.90
2023-04-09T09:53:46.196Z,74.82
2023-04-09T09:56:38.545Z,75.80
2023-04-09T09:59:30.666Z,72.60
2023-04-09T10:02:20.609Z,71.85
2023-04-09T10:07:52.019Z,64.70
2023-04-09T10:10:42.032Z,62.33
2023-04-09T10:16:23.206Z,63.03
2023-04-09T10:19:13.876Z,62.20
2023-04-09T10:22:07.958Z,54.38
2023-04-09T10:24:53.083Z,54.45
2023-04-09T10:27:38.321Z,62.25
2023-04-09T10:30:36.778Z,56.70
2023-04-09T10:33:27.842Z,51.55
2023-04-09T10:36:13.364Z,49.08
2023-04-09T10:38:58.768Z,48.72
2023-04-09T10:41:46.280Z,44.58
2023-04-09T10:44:32.139Z,41.45
2023-04-09T10:47:33.803Z,40.78
2023-04-09T10:50:20.357Z,43.92
2023-04-09T10:53:06.367Z,39.78
2023-04-09T10:55:53.007Z,44.58
2023-04-09T10:58:38.248Z,50.42
2023-04-09T11:01:24.237Z,45.95
2023-04-09T11:04:21.113Z,43.80
2023-04-09T11:07:06.776Z,39.30
2023-04-09T11:09:51.633Z,44.58
2023-04-09T11:12:36.762Z,42.70
2023-04-09T11:15:22.159Z,41.25
2023-04-09T11:18:07.196Z,42.53
2023-04-09T11:21:00.463Z,41.97
2023-04-09T11:23:52.449Z,43.83
2023-04-09T11:26:37.638Z,41.70
2023-04-09T11:29:23.048Z,40.80
2023-04-09T11:32:08.045Z,43.00
2023-04-09T11:34:53.228Z,42.03
2023-04-09T11:37:38.348Z,37.97
2023-04-09T11:40:29.086Z,38.53
2023-04-09T11:43:16.669Z,40.85
2023-04-09T11:46:02.158Z,41.95
2023-04-09T11:48:48.697Z,41.53
2023-04-09T11:51:35.535Z,38.58
2023-04-09T11:54:20.831Z,38.72
2023-04-09T11:57:06.794Z,38.90
2023-04-09T11:59:51.891Z,40.13
2023-04-09T12:02:42.476Z,36.97
2023-04-09T12:05:30.088Z,38.25
2023-04-09T12:08:16.984Z,34.00
2023-04-09T12:11:12.631Z,35.92
2023-04-09T12:14:05.161Z,30.90
2023-04-09T12:16:53.422Z,30.35
2023-04-09T12:19:38.387Z,31.83
2023-04-09T12:22:23.381Z,31.52
2023-04-09T12:25:08.721Z,24.98
2023-04-09T12:27:56.089Z,24.48
2023-04-09T12:30:41.500Z,32.35
2023-04-09T12:33:26.401Z,28.52
2023-04-09T12:36:11.692Z,26.50
2023-04-09T12:38:57.032Z,23.88
2023-04-09T12:41:42.316Z,25.13
2023-04-09T12:44:27.661Z,28.23
2023-04-09T12:47:13.437Z,22.20
2023-04-09T12:49:58.670Z,24.60
2023-04-09T12:52:44.586Z,21.13
2023-04-09T12:55:29.701Z,22.63
2023-04-09T12:58:15.354Z,16.58
2023-04-09T13:01:01.364Z,15.30
2023-04-09T13:03:46.669Z,13.50
2023-04-09T13:06:32.671Z,17.90
2023-04-09T13:09:17.807Z,16.02
2023-04-09T13:12:03.184Z,15.65
2023-04-09T13:14:48.706Z,13.43
2023-04-09T13:17:33.986Z,15.10
2023-04-09T13:20:19.575Z,14.55
2023-04-09T13:23:04.764Z,14.85
2023-04-09T13:25:50.066Z,16.13
2023-04-09T13:28:35.257Z,16.25
2023-04-09T13:31:20.250Z,13.40
2023-04-09T13:34:06.507Z,10.77
2023-04-09T13:36:51.855Z,12.15
2023-04-09T13:39:37.019Z,11.93
2023-04-09T13:42:22.108Z,10.18
2023-04-09T13:45:07.634Z,9.95
2023-04-09T13:47:52.766Z,11.68
2023-04-09T13:50:38.289Z,10.38
2023-04-09T13:53:25.135Z,12.50
2023-04-09T13:56:10.243Z,11.85
2023-04-09T13:58:55.616Z,10.52
2023-04-09T14:01:40.912Z,8.07
2023-04-09T14:04:26.701Z,9.68
2023-04-09T14:07:11.987Z,10.88
2023-04-09T14:09:57.108Z,10.13
2023-04-09T14:12:42.432Z,8.52
2023-04-09T14:15:27.379Z,8.40
2023-04-09T14:18:12.534Z,7.20
2023-04-09T14:20:58.730Z,9.32
2023-04-09T14:23:43.877Z,7.53
2023-04-09T14:26:29.194Z,10.23
2023-04-09T14:29:14.542Z,10.13
2023-04-09T14:32:00.854Z,10.10
2023-04-09T14:34:46.041Z,10.27
2023-04-09T14:37:31.752Z,9.10
2023-04-09T14:40:16.773Z,9.30
2023-04-09T14:43:02.052Z,11.18
2023-04-09T14:45:47.441Z,7.15
2023-04-09T14:48:32.393Z,8.27
2023-04-09T14:51:17.759Z,7.03
2023-04-09T14:54:02.962Z,6.55
2023-04-09T14:56:48.174Z,5.65
2023-04-09T14:59:33.133Z,4.32
2023-04-09T15:02:18.624Z,6.75
2023-04-09T15:05:04.756Z,6.47
2023-04-09T15:07:50.127Z,5.50
2023-04-09T15:10:37.055Z,7.15
2023-04-09T15:13:22.271Z,4.45
2023-04-09T15:16:07.670Z,3.78
2023-04-09T15:18:55.891Z,7.32
2023-04-09T15:21:41.625Z,6.07
2023-04-09T15:24:26.706Z,9.55
2023-04-09T15:27:11.930Z,7.35
2023-04-09T15:29:56.974Z,6.43
2023-04-09T15:32:42.248Z,4.13
2023-04-09T15:35:29.326Z,4.80
2023-04-09T15:38:14.490Z,5.93
2023-04-09T15:40:59.872Z,5.55
2023-04-09T15:43:45.311Z,7.43
2023-04-09T15:46:31.652Z,5.47
2023-04-09T15:49:16.873Z,9.82
2023-04-09T15:52:02.203Z,6.45
2023-04-09T15:54:47.335Z,6.85
2023-04-09T15:57:32.295Z,5.07
2023-04-09T16:00:17.773Z,6.10
2023-04-09T16:03:02.853Z,6.00
2023-04-09T16:05:48.558Z,5.65
2023-04-09T16:08:34.609Z,8.70
2023-04-09T16:11:19.911Z,7.00
2023-04-09T16:14:05.273Z,7.00
2023-04-09T16:16:51.299Z,7.75
2023-04-09T16:19:36.458Z,10.05
2023-04-09T16:22:21.630Z,9.45
2023-04-09T16:25:07.706Z,8.50
2023-04-09T16:27:53.083Z,8.85
2023-04-09T16:30:38.270Z,10.23
2023-04-09T16:33:23.312Z,8.98
2023-04-09T16:36:09.963Z,8.70
2023-04-09T16:38:55.353Z,9.02
2023-04-09T16:41:40.418Z,10.02
2023-04-09T16:44:25.905Z,10.15
2023-04-09T16:47:11.020Z,20.25
2023-04-09T16:49:56.352Z,9.95
2023-04-09T16:52:43.244Z,7.15
2023-04-09T16:55:28.417Z,5.95
2023-04-09T16:58:13.774Z,8.02
2023-04-09T17:00:59.226Z,6.45
2023-04-09T17:03:44.205Z,8.63
2023-04-09T17:06:29.443Z,5.95
2023-04-09T17:09:14.742Z,8.93
2023-04-09T17:11:59.891Z,8.07
2023-04-09T17:14:45.327Z,7.30
2023-04-09T17:17:30.932Z,18.60
2023-04-09T17:20:17.003Z,8.15
2023-04-09T17:23:02.217Z,6.32
2023-04-09T17:25:47.566Z,6.60
2023-04-09T17:28:32.936Z,5.70
2023-04-09T17:31:18.859Z,6.25
2023-04-09T17:34:04.974Z,5.15
2023-04-09T17:36:56.289Z,9.43
2023-04-09T17:39:41.579Z,13.02
2023-04-09T17:42:26.708Z,11.60
2023-04-09T17:45:12.381Z,10.50
2023-04-09T17:47:57.595Z,9.82
2023-04-09T17:50:42.739Z,13.45
2023-04-09T17:53:27.652Z,12.70
2023-04-09T17:56:16.990Z,10.45
2023-04-09T17:59:02.261Z,10.02
2023-04-09T18:01:47.527Z,13.60
2023-04-09T18:04:35.109Z,9.48
2023-04-09T18:07:21.318Z,9.15
2023-04-09T18:10:06.870Z,8.50
2023-04-09T18:12:51.897Z,12.50
2023-04-09T18:15:37.319Z,22.40
2023-04-09T18:18:22.693Z,20.80
2023-04-09T18:21:07.865Z,47.85
2023-04-09T18:23:53.065Z,9.23
2023-04-09T18:26:38.154Z,9.23
2023-04-09T18:29:23.182Z,6.00
2023-04-09T18:32:08.016Z,6.93
2023-04-09T18:34:53.239Z,7.22
2023-04-09T18:37:41.749Z,11.68
2023-04-09T18:40:27.010Z,10.27
2023-04-09T18:43:12.462Z,7.03
2023-04-09T18:45:59.191Z,7.32
2023-04-09T18:48:44.242Z,10.38
2023-04-09T18:51:30.688Z,9.75
2023-04-09T18:54:16.130Z,12.82
2023-04-09T18:57:04.136Z,10.85
2023-04-09T18:59:49.433Z,8.75
2023-04-09T19:02:34.634Z,13.05
2023-04-09T19:05:19.585Z,11.77
2023-04-09T19:08:07.868Z,9.90
2023-04-09T19:10:53.617Z,9.10
2023-04-09T19:13:39.262Z,10.88
2023-04-09T19:16:24.326Z,7.25
2023-04-09T19:19:10.865Z,10.27
2023-04-09T19:21:56.176Z,20.02
2023-04-09T19:24:44.444Z,22.80
2023-04-09T19:27:29.589Z,24.02
2023-04-09T19:30:14.727Z,22.23
2023-04-09T19:32:59.869Z,15.10
2023-04-09T19:35:48.414Z,13.02
2023-04-09T19:38:33.898Z,13.98
2023-04-09T19:41:19.092Z,15.07
2023-04-09T19:44:07.288Z,16.58
2023-04-09T19:46:52.411Z,16.38
2023-04-09T19:49:38.203Z,13.40
2023-04-09T19:52:23.422Z,13.45
2023-04-09T19:55:09.186Z,15.05
2023-04-09T19:57:54.358Z,16.90
2023-04-09T20:00:39.451Z,11.23
2023-04-09T20:03:24.405Z,11.60
2023-04-09T20:06:10.408Z,11.65
2023-04-09T20:08:55.919Z,13.88
2023-04-09T20:11:42.101Z,13.48
2023-04-09T20:14:27.254Z,12.82
2023-04-09T20:17:13.517Z,13.23
2023-04-09T20:19:58.428Z,15.55
2023-04-09T20:22:47.327Z,13.55
2023-04-09T20:25:35.003Z,15.57
2023-04-09T20:28:20.127Z,13.23
2023-04-09T20:31:06.062Z,13.07
2023-04-09T20:33:50.830Z,20.90
2023-04-09T20:36:37.630Z,13.55
2023-04-09T20:39:26.616Z,18.50
2023-04-09T20:42:11.815Z,18.65
2023-04-09T20:44:58.253Z,16.65
2023-04-09T20:47:44.847Z,22.33
2023-04-09T20:50:30.974Z,19.25
2023-04-09T20:53:16.310Z,25.10
2023-04-09T20:56:02.178Z,21.25
2023-04-09T20:58:47.385Z,22.00
2023-04-09T21:01:33.406Z,19.05
2023-04-09T21:04:19.488Z,18.30
2023-04-09T21:07:04.871Z,22.70
2023-04-09T21:09:49.826Z,20.60
2023-04-09T21:12:34.815Z,22.42
2023-04-09T21:15:20.314Z,23.23
2023-04-09T21:18:05.768Z,21.67
2023-04-09T21:20:51.678Z,22.40
2023-04-09T21:23:36.774Z,22.40
2023-04-09T21:26:22.025Z,22.52
2023-04-09T21:29:07.114Z,25.98
2023-04-09T21:31:52.346Z,26.98
2023-04-09T21:34:39.825Z,22.55
2023-04-09T21:37:25.187Z,20.52
2023-04-09T21:40:10.690Z,22.77
2023-04-09T21:42:57.058Z,22.95
2023-04-09T21:45:42.284Z,20.77
2023-04-09T21:48:30.589Z,22.23
2023-04-09T21:51:16.094Z,20.70
2023-04-09T21:54:11.463Z,19.58
2023-04-09T21:56:56.932Z,21.13
2023-04-09T21:59:42.331Z,21.92
2023-04-09T22:02:28.114Z,16.23
2023-04-09T22:05:13.504Z,20.38
2023-04-09T22:07:58.753Z,20.73
2023-04-09T22:10:45.678Z,19.45
2023-04-09T22:13:30.587Z,20.25
2023-04-09T22:16:17.102Z,21.10
2023-04-09T22:19:02.479Z,21.73
2023-04-09T22:21:50.546Z,19.02
2023-04-09T22:24:35.610Z,22.33
2023-04-09T22:27:20.620Z,20.48
2023-04-09T22:30:06.359Z,21.80
2023-04-09T22:32:51.888Z,21.20
2023-04-09T22:35:37.105Z,25.27
2023-04-09T22:38:22.736Z,26.23
2023-04-09T22:41:07.659Z,27.17
2023-04-09T22:43:54.032Z,26.40
2023-04-09T22:46:38.990Z,24.48
2023-04-09T22:49:24.252Z,28.27
2023-04-09T22:52:09.645Z,27.15
2023-04-09T22:54:54.831Z,29.60
2023-04-09T22:57:42.752Z,34.08
2023-04-09T23:00:27.738Z,33.13
2023-04-09T23:03:13.230Z,29.95
2023-04-09T23:05:58.500Z,30.75
2023-04-09T23:08:44.353Z,30.42
2023-04-09T23:11:30.528Z,38.05
2023-04-09T23:14:15.667Z,31.08
2023-04-09T23:17:01.041Z,34.72
2023-04-09T23:19:46.182Z,40.75
2023-04-09T23:22:31.157Z,38.85
2023-04-09T23:25:16.566Z,38.95
2023-04-09T23:28:01.847Z,34.33
2023-04-09T23:30:47.023Z,36.80
2023-04-09T23:33:32.633Z,47.38
2023-04-09T23:36:17.869Z,39.17
2023-04-09T23:39:03.406Z,36.97
2023-04-09T23:41:48.534Z,33.58
2023-04-09T23:44:34.005Z,37.35
2023-04-09T23:47:19.080Z,38.92
2023-04-09T23:50:06.657Z,38.45
2023-04-09T23:52:51.996Z,36.53
2023-04-09T23:55:41.445Z,35.80
2023-04-09T23:58:26.554Z,35.67
